sensor_id;sensor_type;location;lat;lon;timestamp;pressure;altitude;pressure_sealevel;temperature
12854;BMP180;6495;51.808;7.478;2023-08-20T00:01:30;101632.00;;;22.20
12854;BMP180;6495;51.808;7.478;2023-08-20T00:03:59;101633.00;;;22.20
12854;BMP180;6495;51.808;7.478;2023-08-20T00:06:30;101630.00;;;22.20
12854;BMP180;6495;51.808;7.478;2023-08-20T00:08:59;101635.00;;;22.20
12854;BMP180;6495;51.808;7.478;2023-08-20T00:11:27;101640.00;;;22.10
12854;BMP180;6495;51.808;7.478;2023-08-20T00:13:55;101639.00;;;22.10
12854;BMP180;6495;51.808;7.478;2023-08-20T00:16:24;101648.00;;;22.10
12854;BMP180;6495;51.808;7.478;2023-08-20T00:18:53;101645.00;;;22.10
12854;BMP180;6495;51.808;7.478;2023-08-20T00:21:22;101649.00;;;22.00
12854;BMP180;6495;51.808;7.478;2023-08-20T00:23:53;101643.00;;;22.00
12854;BMP180;6495;51.808;7.478;2023-08-20T00:26:22;101646.00;;;22.00
12854;BMP180;6495;51.808;7.478;2023-08-20T00:28:50;101648.00;;;22.00
12854;BMP180;6495;51.808;7.478;2023-08-20T00:31:18;101653.00;;;21.90
12854;BMP180;6495;51.808;7.478;2023-08-20T00:33:46;101660.00;;;21.90
12854;BMP180;6495;51.808;7.478;2023-08-20T00:36:32;101652.00;;;21.90
12854;BMP180;6495;51.808;7.478;2023-08-20T00:39:01;101657.00;;;21.90
12854;BMP180;6495;51.808;7.478;2023-08-20T00:41:30;101656.00;;;21.90
12854;BMP180;6495;51.808;7.478;2023-08-20T00:43:58;101646.00;;;21.80
12854;BMP180;6495;51.808;7.478;2023-08-20T00:46:27;101650.00;;;21.80
12854;BMP180;6495;51.808;7.478;2023-08-20T00:48:56;101651.00;;;21.80
12854;BMP180;6495;51.808;7.478;2023-08-20T00:51:25;101653.00;;;21.70
12854;BMP180;6495;51.808;7.478;2023-08-20T00:53:53;101649.00;;;21.70
12854;BMP180;6495;51.808;7.478;2023-08-20T00:56:24;101646.00;;;21.70
12854;BMP180;6495;51.808;7.478;2023-08-20T00:58:54;101649.00;;;21.60
12854;BMP180;6495;51.808;7.478;2023-08-20T01:01:22;101649.00;;;21.60
12854;BMP180;6495;51.808;7.478;2023-08-20T01:03:51;101654.00;;;21.60
12854;BMP180;6495;51.808;7.478;2023-08-20T01:06:27;101646.00;;;21.60
12854;BMP180;6495;51.808;7.478;2023-08-20T01:09:07;101648.00;;;21.60
12854;BMP180;6495;51.808;7.478;2023-08-20T01:11:45;101640.00;;;21.60
12854;BMP180;6495;51.808;7.478;2023-08-20T01:14:15;101637.00;;;21.50
12854;BMP180;6495;51.808;7.478;2023-08-20T01:16:44;101631.00;;;21.50
12854;BMP180;6495;51.808;7.478;2023-08-20T01:19:20;101627.00;;;21.40
12854;BMP180;6495;51.808;7.478;2023-08-20T01:22:08;101624.00;;;21.40
12854;BMP180;6495;51.808;7.478;2023-08-20T01:25:00;101621.00;;;21.40
12854;BMP180;6495;51.808;7.478;2023-08-20T01:27:51;101622.00;;;21.30
12854;BMP180;6495;51.808;7.478;2023-08-20T01:30:22;101624.00;;;21.30
12854;BMP180;6495;51.808;7.478;2023-08-20T01:32:54;101634.00;;;21.20
12854;BMP180;6495;51.808;7.478;2023-08-20T01:35:24;101637.00;;;21.20
12854;BMP180;6495;51.808;7.478;2023-08-20T01:38:02;101642.00;;;21.20
12854;BMP180;6495;51.808;7.478;2023-08-20T01:40:31;101644.00;;;21.20
12854;BMP180;6495;51.808;7.478;2023-08-20T01:42:59;101647.00;;;21.10
12854;BMP180;6495;51.808;7.478;2023-08-20T01:45:29;101651.00;;;21.10
12854;BMP180;6495;51.808;7.478;2023-08-20T01:47:58;101656.00;;;21.10
12854;BMP180;6495;51.808;7.478;2023-08-20T01:50:26;101658.00;;;21.10
12854;BMP180;6495;51.808;7.478;2023-08-20T01:53:22;101668.00;;;21.10
12854;BMP180;6495;51.808;7.478;2023-08-20T01:56:24;101658.00;;;21.00
12854;BMP180;6495;51.808;7.478;2023-08-20T01:59:42;101671.00;;;21.00
12854;BMP180;6495;51.808;7.478;2023-08-20T02:02:27;101671.00;;;21.00
12854;BMP180;6495;51.808;7.478;2023-08-20T02:05:04;101679.00;;;20.90
12854;BMP180;6495;51.808;7.478;2023-08-20T02:07:32;101678.00;;;20.90
12854;BMP180;6495;51.808;7.478;2023-08-20T02:10:01;101673.00;;;20.90
12854;BMP180;6495;51.808;7.478;2023-08-20T02:12:29;101675.00;;;20.90
12854;BMP180;6495;51.808;7.478;2023-08-20T02:14:58;101672.00;;;20.90
12854;BMP180;6495;51.808;7.478;2023-08-20T02:17:32;101672.00;;;20.90
12854;BMP180;6495;51.808;7.478;2023-08-20T02:20:04;101667.00;;;20.90
12854;BMP180;6495;51.808;7.478;2023-08-20T02:22:37;101673.00;;;20.90
12854;BMP180;6495;51.808;7.478;2023-08-20T02:25:09;101667.00;;;20.90
12854;BMP180;6495;51.808;7.478;2023-08-20T02:27:37;101683.00;;;20.90
12854;BMP180;6495;51.808;7.478;2023-08-20T02:30:07;101682.00;;;20.80
12854;BMP180;6495;51.808;7.478;2023-08-20T02:32:37;101685.00;;;20.80
12854;BMP180;6495;51.808;7.478;2023-08-20T02:35:06;101679.00;;;20.90
12854;BMP180;6495;51.808;7.478;2023-08-20T02:37:34;101679.00;;;20.90
12854;BMP180;6495;51.808;7.478;2023-08-20T02:40:05;101684.00;;;20.90
12854;BMP180;6495;51.808;7.478;2023-08-20T02:42:37;101687.00;;;20.90
12854;BMP180;6495;51.808;7.478;2023-08-20T02:45:07;101689.00;;;20.90
12854;BMP180;6495;51.808;7.478;2023-08-20T02:47:37;101681.00;;;20.80
12854;BMP180;6495;51.808;7.478;2023-08-20T02:50:06;101683.00;;;20.90
12854;BMP180;6495;51.808;7.478;2023-08-20T02:52:33;101682.00;;;20.90
12854;BMP180;6495;51.808;7.478;2023-08-20T02:55:02;101687.00;;;20.80
12854;BMP180;6495;51.808;7.478;2023-08-20T02:57:34;101689.00;;;20.80
12854;BMP180;6495;51.808;7.478;2023-08-20T03:00:07;101685.00;;;20.80
12854;BMP180;6495;51.808;7.478;2023-08-20T03:02:45;101693.00;;;20.70
12854;BMP180;6495;51.808;7.478;2023-08-20T03:05:13;101695.00;;;20.70
12854;BMP180;6495;51.808;7.478;2023-08-20T03:07:42;101706.00;;;20.70
12854;BMP180;6495;51.808;7.478;2023-08-20T03:10:11;101709.00;;;20.70
12854;BMP180;6495;51.808;7.478;2023-08-20T03:12:39;101703.00;;;20.70
12854;BMP180;6495;51.808;7.478;2023-08-20T03:15:08;101704.00;;;20.70
12854;BMP180;6495;51.808;7.478;2023-08-20T03:17:38;101701.00;;;20.70
12854;BMP180;6495;51.808;7.478;2023-08-20T03:20:08;101695.00;;;20.60
12854;BMP180;6495;51.808;7.478;2023-08-20T03:22:39;101702.00;;;20.60
12854;BMP180;6495;51.808;7.478;2023-08-20T03:25:08;101705.00;;;20.60
12854;BMP180;6495;51.808;7.478;2023-08-20T03:27:39;101700.00;;;20.60
12854;BMP180;6495;51.808;7.478;2023-08-20T03:30:09;101691.00;;;20.60
12854;BMP180;6495;51.808;7.478;2023-08-20T03:32:39;101688.00;;;20.60
12854;BMP180;6495;51.808;7.478;2023-08-20T03:35:12;101694.00;;;20.60
12854;BMP180;6495;51.808;7.478;2023-08-20T03:37:42;101687.00;;;20.70
12854;BMP180;6495;51.808;7.478;2023-08-20T03:40:11;101687.00;;;20.60
12854;BMP180;6495;51.808;7.478;2023-08-20T03:42:39;101694.00;;;20.60
12854;BMP180;6495;51.808;7.478;2023-08-20T03:45:09;101679.00;;;20.50
12854;BMP180;6495;51.808;7.478;2023-08-20T03:47:40;101680.00;;;20.50
12854;BMP180;6495;51.808;7.478;2023-08-20T03:50:14;101682.00;;;20.50
12854;BMP180;6495;51.808;7.478;2023-08-20T03:52:45;101686.00;;;20.50
12854;BMP180;6495;51.808;7.478;2023-08-20T03:55:13;101683.00;;;20.50
12854;BMP180;6495;51.808;7.478;2023-08-20T03:57:42;101688.00;;;20.50
12854;BMP180;6495;51.808;7.478;2023-08-20T04:00:14;101688.00;;;20.50
12854;BMP180;6495;51.808;7.478;2023-08-20T04:02:47;101680.00;;;20.50
12854;BMP180;6495;51.808;7.478;2023-08-20T04:09:29;101687.00;;;20.50
12854;BMP180;6495;51.808;7.478;2023-08-20T04:18:10;101685.00;;;20.40
12854;BMP180;6495;51.808;7.478;2023-08-20T04:30:28;101679.00;;;20.30
12854;BMP180;6495;51.808;7.478;2023-08-20T04:34:52;101690.00;;;20.30
12854;BMP180;6495;51.808;7.478;2023-08-20T04:42:48;101693.00;;;20.30
12854;BMP180;6495;51.808;7.478;2023-08-20T04:59:35;101703.00;;;20.40
12854;BMP180;6495;51.808;7.478;2023-08-20T05:02:22;101699.00;;;20.40
12854;BMP180;6495;51.808;7.478;2023-08-20T05:04:57;101707.00;;;20.40
12854;BMP180;6495;51.808;7.478;2023-08-20T05:07:25;101697.00;;;20.40
12854;BMP180;6495;51.808;7.478;2023-08-20T05:09:54;101695.00;;;20.50
12854;BMP180;6495;51.808;7.478;2023-08-20T05:12:22;101699.00;;;20.50
12854;BMP180;6495;51.808;7.478;2023-08-20T05:14:52;101704.00;;;20.50
12854;BMP180;6495;51.808;7.478;2023-08-20T05:17:21;101709.00;;;20.50
12854;BMP180;6495;51.808;7.478;2023-08-20T05:19:49;101718.00;;;20.50
12854;BMP180;6495;51.808;7.478;2023-08-20T05:22:18;101722.00;;;20.60
12854;BMP180;6495;51.808;7.478;2023-08-20T05:24:46;101735.00;;;20.60
12854;BMP180;6495;51.808;7.478;2023-08-20T05:27:16;101733.00;;;20.60
12854;BMP180;6495;51.808;7.478;2023-08-20T05:29:47;101732.00;;;20.60
12854;BMP180;6495;51.808;7.478;2023-08-20T05:32:19;101743.00;;;20.70
12854;BMP180;6495;51.808;7.478;2023-08-20T05:34:47;101740.00;;;20.70
12854;BMP180;6495;51.808;7.478;2023-08-20T05:37:15;101734.00;;;20.70
12854;BMP180;6495;51.808;7.478;2023-08-20T05:39:44;101746.00;;;20.70
12854;BMP180;6495;51.808;7.478;2023-08-20T05:42:13;101738.00;;;20.70
12854;BMP180;6495;51.808;7.478;2023-08-20T05:44:46;101734.00;;;20.70
12854;BMP180;6495;51.808;7.478;2023-08-20T05:47:21;101748.00;;;20.70
12854;BMP180;6495;51.808;7.478;2023-08-20T05:49:49;101740.00;;;20.70
12854;BMP180;6495;51.808;7.478;2023-08-20T05:52:17;101735.00;;;20.70
12854;BMP180;6495;51.808;7.478;2023-08-20T05:54:46;101743.00;;;20.70
12854;BMP180;6495;51.808;7.478;2023-08-20T05:57:16;101733.00;;;20.80
12854;BMP180;6495;51.808;7.478;2023-08-20T05:59:45;101730.00;;;20.80
12854;BMP180;6495;51.808;7.478;2023-08-20T06:02:16;101733.00;;;20.90
12854;BMP180;6495;51.808;7.478;2023-08-20T06:04:46;101734.00;;;20.90
12854;BMP180;6495;51.808;7.478;2023-08-20T06:07:16;101733.00;;;20.90
12854;BMP180;6495;51.808;7.478;2023-08-20T06:09:44;101732.00;;;20.80
12854;BMP180;6495;51.808;7.478;2023-08-20T06:12:12;101738.00;;;20.90
12854;BMP180;6495;51.808;7.478;2023-08-20T06:14:40;101734.00;;;20.90
12854;BMP180;6495;51.808;7.478;2023-08-20T06:17:08;101732.00;;;21.00
12854;BMP180;6495;51.808;7.478;2023-08-20T06:19:36;101741.00;;;21.00
12854;BMP180;6495;51.808;7.478;2023-08-20T06:22:06;101736.00;;;21.00
12854;BMP180;6495;51.808;7.478;2023-08-20T06:24:34;101730.00;;;21.00
12854;BMP180;6495;51.808;7.478;2023-08-20T06:27:03;101729.00;;;21.00
12854;BMP180;6495;51.808;7.478;2023-08-20T06:29:31;101743.00;;;21.10
12854;BMP180;6495;51.808;7.478;2023-08-20T06:31:59;101740.00;;;21.10
12854;BMP180;6495;51.808;7.478;2023-08-20T06:34:27;101738.00;;;21.10
12854;BMP180;6495;51.808;7.478;2023-08-20T06:36:55;101739.00;;;21.10
12854;BMP180;6495;51.808;7.478;2023-08-20T06:39:25;101745.00;;;21.10
12854;BMP180;6495;51.808;7.478;2023-08-20T06:41:53;101746.00;;;21.10
12854;BMP180;6495;51.808;7.478;2023-08-20T06:44:21;101752.00;;;21.10
12854;BMP180;6495;51.808;7.478;2023-08-20T06:46:49;101755.00;;;21.20
12854;BMP180;6495;51.808;7.478;2023-08-20T06:49:17;101747.00;;;21.20
12854;BMP180;6495;51.808;7.478;2023-08-20T06:51:45;101745.00;;;21.30
12854;BMP180;6495;51.808;7.478;2023-08-20T06:54:15;101749.00;;;21.30
12854;BMP180;6495;51.808;7.478;2023-08-20T06:56:44;101751.00;;;21.30
12854;BMP180;6495;51.808;7.478;2023-08-20T06:59:15;101752.00;;;21.30
12854;BMP180;6495;51.808;7.478;2023-08-20T07:01:44;101751.00;;;21.30
12854;BMP180;6495;51.808;7.478;2023-08-20T07:04:12;101745.00;;;21.30
12854;BMP180;6495;51.808;7.478;2023-08-20T07:06:41;101747.00;;;21.40
12854;BMP180;6495;51.808;7.478;2023-08-20T07:09:09;101743.00;;;21.40
12854;BMP180;6495;51.808;7.478;2023-08-20T07:11:38;101747.00;;;21.50
12854;BMP180;6495;51.808;7.478;2023-08-20T07:14:07;101745.00;;;21.50
12854;BMP180;6495;51.808;7.478;2023-08-20T07:16:35;101748.00;;;21.50
12854;BMP180;6495;51.808;7.478;2023-08-20T07:19:04;101753.00;;;21.60
12854;BMP180;6495;51.808;7.478;2023-08-20T07:21:32;101763.00;;;21.60
12854;BMP180;6495;51.808;7.478;2023-08-20T07:24:01;101756.00;;;21.70
12854;BMP180;6495;51.808;7.478;2023-08-20T07:26:29;101748.00;;;21.80
12854;BMP180;6495;51.808;7.478;2023-08-20T07:29:00;101745.00;;;21.90
12854;BMP180;6495;51.808;7.478;2023-08-20T07:31:32;101757.00;;;21.90
12854;BMP180;6495;51.808;7.478;2023-08-20T07:34:02;101763.00;;;21.90
12854;BMP180;6495;51.808;7.478;2023-08-20T07:36:32;101764.00;;;22.00
12854;BMP180;6495;51.808;7.478;2023-08-20T07:39:01;101763.00;;;22.10
12854;BMP180;6495;51.808;7.478;2023-08-20T07:41:30;101756.00;;;22.10
12854;BMP180;6495;51.808;7.478;2023-08-20T07:43:58;101758.00;;;22.10
12854;BMP180;6495;51.808;7.478;2023-08-20T07:46:26;101751.00;;;22.20
12854;BMP180;6495;51.808;7.478;2023-08-20T07:48:55;101754.00;;;22.20
12854;BMP180;6495;51.808;7.478;2023-08-20T07:51:24;101760.00;;;22.30
12854;BMP180;6495;51.808;7.478;2023-08-20T07:53:52;101756.00;;;22.30
12854;BMP180;6495;51.808;7.478;2023-08-20T07:56:20;101761.00;;;22.40
12854;BMP180;6495;51.808;7.478;2023-08-20T07:58:48;101766.00;;;22.50
12854;BMP180;6495;51.808;7.478;2023-08-20T08:01:16;101768.00;;;22.60
12854;BMP180;6495;51.808;7.478;2023-08-20T08:03:45;101765.00;;;22.70
12854;BMP180;6495;51.808;7.478;2023-08-20T08:06:16;101760.00;;;22.90
12854;BMP180;6495;51.808;7.478;2023-08-20T08:08:44;101767.00;;;23.00
12854;BMP180;6495;51.808;7.478;2023-08-20T08:11:12;101778.00;;;23.20
12854;BMP180;6495;51.808;7.478;2023-08-20T08:13:40;101771.00;;;23.40
12854;BMP180;6495;51.808;7.478;2023-08-20T08:16:08;101772.00;;;23.50
12854;BMP180;6495;51.808;7.478;2023-08-20T08:18:37;101783.00;;;23.70
12854;BMP180;6495;51.808;7.478;2023-08-20T08:21:05;101780.00;;;23.90
12854;BMP180;6495;51.808;7.478;2023-08-20T08:23:34;101777.00;;;24.00
12854;BMP180;6495;51.808;7.478;2023-08-20T08:26:02;101777.00;;;24.10
12854;BMP180;6495;51.808;7.478;2023-08-20T08:28:30;101784.00;;;24.30
12854;BMP180;6495;51.808;7.478;2023-08-20T08:30:59;101785.00;;;24.50
12854;BMP180;6495;51.808;7.478;2023-08-20T08:33:27;101786.00;;;24.60
12854;BMP180;6495;51.808;7.478;2023-08-20T08:35:56;101784.00;;;24.70
12854;BMP180;6495;51.808;7.478;2023-08-20T08:38:25;101784.00;;;24.80
12854;BMP180;6495;51.808;7.478;2023-08-20T08:40:55;101779.00;;;25.00
12854;BMP180;6495;51.808;7.478;2023-08-20T08:43:24;101784.00;;;25.10
12854;BMP180;6495;51.808;7.478;2023-08-20T08:45:55;101792.00;;;25.20
12854;BMP180;6495;51.808;7.478;2023-08-20T08:48:25;101785.00;;;25.30
12854;BMP180;6495;51.808;7.478;2023-08-20T08:50:54;101791.00;;;25.50
12854;BMP180;6495;51.808;7.478;2023-08-20T08:53:24;101792.00;;;25.60
12854;BMP180;6495;51.808;7.478;2023-08-20T08:55:53;101792.00;;;25.60
12854;BMP180;6495;51.808;7.478;2023-08-20T08:58:22;101795.00;;;25.80
12854;BMP180;6495;51.808;7.478;2023-08-20T09:00:50;101789.00;;;25.90
12854;BMP180;6495;51.808;7.478;2023-08-20T09:03:19;101798.00;;;26.00
12854;BMP180;6495;51.808;7.478;2023-08-20T09:05:47;101795.00;;;26.10
12854;BMP180;6495;51.808;7.478;2023-08-20T09:08:20;101798.00;;;26.20
12854;BMP180;6495;51.808;7.478;2023-08-20T09:10:50;101795.00;;;26.30
12854;BMP180;6495;51.808;7.478;2023-08-20T09:13:24;101800.00;;;26.50
12854;BMP180;6495;51.808;7.478;2023-08-20T09:15:53;101802.00;;;26.60
12854;BMP180;6495;51.808;7.478;2023-08-20T09:18:22;101799.00;;;26.70
12854;BMP180;6495;51.808;7.478;2023-08-20T09:20:50;101807.00;;;26.70
12854;BMP180;6495;51.808;7.478;2023-08-20T09:23:18;101809.00;;;26.90
12854;BMP180;6495;51.808;7.478;2023-08-20T09:25:47;101804.00;;;26.90
12854;BMP180;6495;51.808;7.478;2023-08-20T09:28:15;101805.00;;;27.00
12854;BMP180;6495;51.808;7.478;2023-08-20T09:30:59;101814.00;;;27.10
12854;BMP180;6495;51.808;7.478;2023-08-20T09:33:29;101809.00;;;27.20
12854;BMP180;6495;51.808;7.478;2023-08-20T09:35:57;101808.00;;;27.20
12854;BMP180;6495;51.808;7.478;2023-08-20T09:38:26;101808.00;;;27.30
12854;BMP180;6495;51.808;7.478;2023-08-20T09:40:54;101807.00;;;27.40
12854;BMP180;6495;51.808;7.478;2023-08-20T09:43:25;101800.00;;;27.30
12854;BMP180;6495;51.808;7.478;2023-08-20T09:45:59;101812.00;;;27.30
12854;BMP180;6495;51.808;7.478;2023-08-20T09:48:34;101812.00;;;27.30
12854;BMP180;6495;51.808;7.478;2023-08-20T09:51:10;101812.00;;;27.30
12854;BMP180;6495;51.808;7.478;2023-08-20T09:53:45;101815.00;;;27.20
12854;BMP180;6495;51.808;7.478;2023-08-20T09:56:24;101819.00;;;27.30
12854;BMP180;6495;51.808;7.478;2023-08-20T09:58:57;101823.00;;;27.40
12854;BMP180;6495;51.808;7.478;2023-08-20T10:01:27;101823.00;;;27.50
12854;BMP180;6495;51.808;7.478;2023-08-20T10:03:56;101813.00;;;27.60
12854;BMP180;6495;51.808;7.478;2023-08-20T10:06:25;101812.00;;;27.70
12854;BMP180;6495;51.808;7.478;2023-08-20T10:08:54;101813.00;;;27.70
12854;BMP180;6495;51.808;7.478;2023-08-20T10:11:22;101814.00;;;27.80
12854;BMP180;6495;51.808;7.478;2023-08-20T10:13:50;101812.00;;;27.90
12854;BMP180;6495;51.808;7.478;2023-08-20T10:16:20;101815.00;;;28.00
12854;BMP180;6495;51.808;7.478;2023-08-20T10:18:52;101810.00;;;28.20
12854;BMP180;6495;51.808;7.478;2023-08-20T10:21:23;101818.00;;;28.30
12854;BMP180;6495;51.808;7.478;2023-08-20T10:23:53;101813.00;;;28.40
12854;BMP180;6495;51.808;7.478;2023-08-20T10:26:21;101826.00;;;28.50
12854;BMP180;6495;51.808;7.478;2023-08-20T10:28:51;101817.00;;;28.50
12854;BMP180;6495;51.808;7.478;2023-08-20T10:31:19;101811.00;;;28.50
12854;BMP180;6495;51.808;7.478;2023-08-20T10:33:56;101807.00;;;28.60
12854;BMP180;6495;51.808;7.478;2023-08-20T10:36:26;101806.00;;;28.70
12854;BMP180;6495;51.808;7.478;2023-08-20T10:39:01;101808.00;;;28.70
12854;BMP180;6495;51.808;7.478;2023-08-20T10:41:31;101810.00;;;28.70
12854;BMP180;6495;51.808;7.478;2023-08-20T10:44:00;101808.00;;;28.70
12854;BMP180;6495;51.808;7.478;2023-08-20T10:46:29;101811.00;;;28.70
12854;BMP180;6495;51.808;7.478;2023-08-20T10:49:02;101814.00;;;28.80
12854;BMP180;6495;51.808;7.478;2023-08-20T10:51:33;101804.00;;;29.00
12854;BMP180;6495;51.808;7.478;2023-08-20T10:54:05;101809.00;;;29.00
12854;BMP180;6495;51.808;7.478;2023-08-20T10:56:42;101815.00;;;29.00
12854;BMP180;6495;51.808;7.478;2023-08-20T10:59:14;101807.00;;;28.90
12854;BMP180;6495;51.808;7.478;2023-08-20T11:01:45;101818.00;;;28.90
12854;BMP180;6495;51.808;7.478;2023-08-20T11:04:16;101815.00;;;29.00
12854;BMP180;6495;51.808;7.478;2023-08-20T11:06:47;101818.00;;;29.00
12854;BMP180;6495;51.808;7.478;2023-08-20T11:09:21;101814.00;;;29.00
12854;BMP180;6495;51.808;7.478;2023-08-20T11:11:51;101819.00;;;29.00
12854;BMP180;6495;51.808;7.478;2023-08-20T11:14:21;101814.00;;;29.00
12854;BMP180;6495;51.808;7.478;2023-08-20T11:16:52;101811.00;;;29.00
12854;BMP180;6495;51.808;7.478;2023-08-20T11:19:23;101801.00;;;29.10
12854;BMP180;6495;51.808;7.478;2023-08-20T11:21:52;101815.00;;;29.10
12854;BMP180;6495;51.808;7.478;2023-08-20T11:24:23;101803.00;;;29.10
12854;BMP180;6495;51.808;7.478;2023-08-20T11:26:58;101807.00;;;29.20
12854;BMP180;6495;51.808;7.478;2023-08-20T11:29:27;101816.00;;;29.20
12854;BMP180;6495;51.808;7.478;2023-08-20T11:31:58;101804.00;;;29.30
12854;BMP180;6495;51.808;7.478;2023-08-20T11:34:31;101808.00;;;29.40
12854;BMP180;6495;51.808;7.478;2023-08-20T11:37:00;101807.00;;;29.40
12854;BMP180;6495;51.808;7.478;2023-08-20T11:39:29;101810.00;;;29.40
12854;BMP180;6495;51.808;7.478;2023-08-20T11:41:58;101808.00;;;29.50
12854;BMP180;6495;51.808;7.478;2023-08-20T11:44:42;101808.00;;;29.70
12854;BMP180;6495;51.808;7.478;2023-08-20T11:47:16;101804.00;;;29.80
12854;BMP180;6495;51.808;7.478;2023-08-20T11:49:46;101806.00;;;29.80
12854;BMP180;6495;51.808;7.478;2023-08-20T11:52:14;101806.00;;;29.90
12854;BMP180;6495;51.808;7.478;2023-08-20T11:54:44;101806.00;;;30.00
12854;BMP180;6495;51.808;7.478;2023-08-20T11:57:13;101803.00;;;30.00
12854;BMP180;6495;51.808;7.478;2023-08-20T11:59:44;101811.00;;;30.00
12854;BMP180;6495;51.808;7.478;2023-08-20T12:02:12;101807.00;;;29.90
12854;BMP180;6495;51.808;7.478;2023-08-20T12:04:50;101816.00;;;29.90
12854;BMP180;6495;51.808;7.478;2023-08-20T12:07:19;101820.00;;;29.80
12854;BMP180;6495;51.808;7.478;2023-08-20T12:09:47;101811.00;;;29.80
12854;BMP180;6495;51.808;7.478;2023-08-20T12:12:19;101809.00;;;29.80
12854;BMP180;6495;51.808;7.478;2023-08-20T12:14:48;101801.00;;;29.70
12854;BMP180;6495;51.808;7.478;2023-08-20T12:17:17;101800.00;;;29.70
12854;BMP180;6495;51.808;7.478;2023-08-20T12:19:47;101805.00;;;29.80
12854;BMP180;6495;51.808;7.478;2023-08-20T12:22:16;101795.00;;;29.80
12854;BMP180;6495;51.808;7.478;2023-08-20T12:24:44;101791.00;;;29.90
12854;BMP180;6495;51.808;7.478;2023-08-20T12:27:12;101799.00;;;30.00
12854;BMP180;6495;51.808;7.478;2023-08-20T12:29:40;101791.00;;;30.10
12854;BMP180;6495;51.808;7.478;2023-08-20T12:32:08;101788.00;;;30.20
12854;BMP180;6495;51.808;7.478;2023-08-20T12:34:37;101788.00;;;30.20
12854;BMP180;6495;51.808;7.478;2023-08-20T12:37:06;101794.00;;;30.30
12854;BMP180;6495;51.808;7.478;2023-08-20T12:39:35;101790.00;;;30.30
12854;BMP180;6495;51.808;7.478;2023-08-20T12:42:03;101794.00;;;30.30
12854;BMP180;6495;51.808;7.478;2023-08-20T12:44:32;101788.00;;;30.30
12854;BMP180;6495;51.808;7.478;2023-08-20T12:47:03;101791.00;;;30.30
12854;BMP180;6495;51.808;7.478;2023-08-20T12:49:35;101783.00;;;30.30
12854;BMP180;6495;51.808;7.478;2023-08-20T12:52:03;101778.00;;;30.30
12854;BMP180;6495;51.808;7.478;2023-08-20T12:54:35;101782.00;;;30.30
12854;BMP180;6495;51.808;7.478;2023-08-20T12:57:06;101775.00;;;30.40
12854;BMP180;6495;51.808;7.478;2023-08-20T12:59:36;101775.00;;;30.40
12854;BMP180;6495;51.808;7.478;2023-08-20T13:02:05;101776.00;;;30.50
12854;BMP180;6495;51.808;7.478;2023-08-20T13:04:34;101778.00;;;30.50
12854;BMP180;6495;51.808;7.478;2023-08-20T13:07:03;101768.00;;;30.50
12854;BMP180;6495;51.808;7.478;2023-08-20T13:09:32;101769.00;;;30.50
12854;BMP180;6495;51.808;7.478;2023-08-20T13:12:03;101768.00;;;30.60
12854;BMP180;6495;51.808;7.478;2023-08-20T13:14:40;101771.00;;;30.70
12854;BMP180;6495;51.808;7.478;2023-08-20T13:17:09;101773.00;;;30.70
12854;BMP180;6495;51.808;7.478;2023-08-20T13:19:41;101773.00;;;30.80
12854;BMP180;6495;51.808;7.478;2023-08-20T13:22:09;101762.00;;;30.80
12854;BMP180;6495;51.808;7.478;2023-08-20T13:24:37;101769.00;;;30.90
12854;BMP180;6495;51.808;7.478;2023-08-20T13:27:07;101762.00;;;30.90
12854;BMP180;6495;51.808;7.478;2023-08-20T13:29:35;101771.00;;;30.70
12854;BMP180;6495;51.808;7.478;2023-08-20T13:32:06;101758.00;;;30.60
12854;BMP180;6495;51.808;7.478;2023-08-20T13:35:11;101761.00;;;30.70
12854;BMP180;6495;51.808;7.478;2023-08-20T13:37:40;101768.00;;;30.70
12854;BMP180;6495;51.808;7.478;2023-08-20T13:40:52;101772.00;;;30.90
12854;BMP180;6495;51.808;7.478;2023-08-20T13:43:22;101764.00;;;30.90
12854;BMP180;6495;51.808;7.478;2023-08-20T13:45:50;101767.00;;;30.90
12854;BMP180;6495;51.808;7.478;2023-08-20T13:48:18;101764.00;;;31.00
12854;BMP180;6495;51.808;7.478;2023-08-20T13:50:46;101766.00;;;31.10
12854;BMP180;6495;51.808;7.478;2023-08-20T13:53:15;101769.00;;;31.00
12854;BMP180;6495;51.808;7.478;2023-08-20T13:55:43;101763.00;;;31.10
12854;BMP180;6495;51.808;7.478;2023-08-20T13:58:11;101767.00;;;31.20
12854;BMP180;6495;51.808;7.478;2023-08-20T14:00:41;101764.00;;;31.20
12854;BMP180;6495;51.808;7.478;2023-08-20T14:03:09;101759.00;;;31.30
12854;BMP180;6495;51.808;7.478;2023-08-20T14:05:38;101760.00;;;31.30
12854;BMP180;6495;51.808;7.478;2023-08-20T14:08:06;101764.00;;;31.40
12854;BMP180;6495;51.808;7.478;2023-08-20T14:10:34;101773.00;;;31.50
12854;BMP180;6495;51.808;7.478;2023-08-20T14:13:02;101767.00;;;31.50
12854;BMP180;6495;51.808;7.478;2023-08-20T14:15:30;101772.00;;;31.50
12854;BMP180;6495;51.808;7.478;2023-08-20T14:18:00;101781.00;;;31.60
12854;BMP180;6495;51.808;7.478;2023-08-20T14:20:28;101774.00;;;31.60
12854;BMP180;6495;51.808;7.478;2023-08-20T14:22:56;101783.00;;;31.60
12854;BMP180;6495;51.808;7.478;2023-08-20T14:25:24;101781.00;;;31.60
12854;BMP180;6495;51.808;7.478;2023-08-20T14:27:53;101786.00;;;31.70
12854;BMP180;6495;51.808;7.478;2023-08-20T14:31:02;101775.00;;;31.70
12854;BMP180;6495;51.808;7.478;2023-08-20T14:34:14;101771.00;;;31.80
12854;BMP180;6495;51.808;7.478;2023-08-20T14:36:43;101775.00;;;31.90
12854;BMP180;6495;51.808;7.478;2023-08-20T14:39:12;101770.00;;;32.00
12854;BMP180;6495;51.808;7.478;2023-08-20T14:41:41;101774.00;;;32.10
12854;BMP180;6495;51.808;7.478;2023-08-20T14:44:09;101778.00;;;32.10
12854;BMP180;6495;51.808;7.478;2023-08-20T14:46:37;101769.00;;;32.10
12854;BMP180;6495;51.808;7.478;2023-08-20T14:49:09;101775.00;;;32.10
12854;BMP180;6495;51.808;7.478;2023-08-20T14:51:42;101778.00;;;32.00
12854;BMP180;6495;51.808;7.478;2023-08-20T14:54:10;101780.00;;;32.00
12854;BMP180;6495;51.808;7.478;2023-08-20T14:56:42;101774.00;;;31.90
12854;BMP180;6495;51.808;7.478;2023-08-20T14:59:15;101780.00;;;32.00
12854;BMP180;6495;51.808;7.478;2023-08-20T15:01:44;101774.00;;;31.90
12854;BMP180;6495;51.808;7.478;2023-08-20T15:04:17;101774.00;;;31.90
12854;BMP180;6495;51.808;7.478;2023-08-20T15:06:47;101770.00;;;31.90
12854;BMP180;6495;51.808;7.478;2023-08-20T15:09:18;101764.00;;;31.90
12854;BMP180;6495;51.808;7.478;2023-08-20T15:11:50;101769.00;;;31.80